Time;durP1;ratioP1;P1;durP2;ratioP2;P2;SDS_P1;SDS_P2;PMS_P1;PMS_P2;Temp;Humidity;BMP_temperature;BMP_pressure;BME280_temperature;BME280_humidity;BME280_pressure;Samples;Min_cycle;Max_cycle;Signal;HPM_P1;HPM_P2
2021/09/26 00:01:46;;;;;;;12.52;8.82;;;15.70;60.30;;;;;;5001145;28;20485;-77
2021/09/26 00:04:12;;;;;;;11.02;8.77;;;15.70;60.40;;;;;;4994782;28;20382;-77
2021/09/26 00:06:37;;;;;;;14.07;8.63;;;15.70;60.00;;;;;;5016161;28;20401;-77
2021/09/26 00:09:04;;;;;;;10.95;8.60;;;15.70;59.60;;;;;;5021349;28;20388;-76
2021/09/26 00:11:30;;;;;;;11.30;8.05;;;15.60;60.20;;;;;;5022786;28;20412;-76
2021/09/26 00:13:56;;;;;;;10.93;8.68;;;15.60;59.80;;;;;;5019475;28;20388;-78
2021/09/26 00:16:22;;;;;;;11.55;8.43;;;15.60;59.70;;;;;;5016984;28;20447;-77
2021/09/26 00:18:48;;;;;;;9.88;8.13;;;15.60;59.60;;;;;;5016234;28;20392;-77
2021/09/26 00:21:15;;;;;;;12.68;8.60;;;15.60;59.20;;;;;;5016732;28;20384;-77
2021/09/26 00:23:40;;;;;;;8.80;7.73;;;15.60;59.10;;;;;;5016751;28;20384;-77
2021/09/26 00:26:06;;;;;;;9.93;8.50;;;15.50;59.60;;;;;;5017465;28;20909;-77
2021/09/26 00:28:32;;;;;;;12.93;8.50;;;15.50;59.80;;;;;;5015453;28;20384;-76
2021/09/26 00:30:58;;;;;;;11.55;8.20;;;15.50;59.80;;;;;;4999548;28;20421;-77
2021/09/26 00:33:24;;;;;;;11.23;8.80;;;15.40;60.00;;;;;;4995301;28;20461;-76
2021/09/26 00:35:51;;;;;;;11.38;8.07;;;15.50;59.60;;;;;;4996275;28;20433;-76
2021/09/26 00:38:19;;;;;;;11.20;8.52;;;15.50;59.80;;;;;;5002963;28;20483;-77
2021/09/26 00:40:49;;;;;;;8.93;7.80;;;15.50;59.30;;;;;;5019159;28;20395;-76
2021/09/26 00:43:15;;;;;;;13.77;8.90;;;15.60;58.60;;;;;;5021710;28;20968;-77
2021/09/26 00:45:41;;;;;;;13.05;8.50;;;15.60;57.70;;;;;;5018463;28;20393;-77
2021/09/26 00:48:07;;;;;;;12.18;7.65;;;15.60;57.40;;;;;;5001396;28;20387;-75
2021/09/26 00:50:33;;;;;;;14.33;8.00;;;15.70;56.20;;;;;;5022022;28;20412;-77
2021/09/26 00:52:59;;;;;;;10.38;8.50;;;15.80;55.50;;;;;;5023568;28;20400;-77
2021/09/26 00:55:24;;;;;;;11.33;7.80;;;15.90;55.30;;;;;;5017127;28;20900;-77
2021/09/26 00:57:51;;;;;;;12.40;7.60;;;16.00;53.70;;;;;;5017022;28;20434;-77
2021/09/26 01:00:20;;;;;;;12.25;8.00;;;16.10;51.70;;;;;;4984260;28;20451;-76
2021/09/26 01:02:46;;;;;;;9.55;7.50;;;16.10;51.00;;;;;;4980506;28;20396;-78
2021/09/26 01:05:13;;;;;;;9.85;7.88;;;16.20;50.90;;;;;;4986013;28;20399;-77
2021/09/26 01:07:57;;;;;;;10.15;7.70;;;16.20;50.70;;;;;;4978503;28;20403;-78
2021/09/26 01:10:44;;;;;;;9.60;7.63;;;16.20;50.60;;;;;;5015225;28;20416;-76
2021/09/26 01:13:36;;;;;;;12.52;7.90;;;16.20;49.80;;;;;;5015851;28;20385;-76
2021/09/26 01:16:06;;;;;;;9.95;7.70;;;16.30;49.70;;;;;;5013924;28;20404;-75
2021/09/26 01:18:39;;;;;;;13.05;8.05;;;16.30;49.50;;;;;;5015428;28;20385;-76
2021/09/26 01:21:18;;;;;;;9.73;7.03;;;16.30;49.50;;;;;;5016447;28;20396;-76
2021/09/26 01:23:54;;;;;;;10.65;7.25;;;16.40;48.40;;;;;;4982113;28;20396;-77
2021/09/26 01:26:55;;;;;;;10.23;8.40;;;16.50;48.10;;;;;;4986246;28;20415;-76
2021/09/26 01:29:47;;;;;;;10.10;7.97;;;16.50;48.50;;;;;;5010558;28;20452;-76
2021/09/26 01:32:16;;;;;;;10.50;7.35;;;16.50;47.50;;;;;;5017907;28;20404;-76
2021/09/26 01:34:46;;;;;;;9.73;7.65;;;16.60;47.10;;;;;;5014876;28;20742;-76
2021/09/26 01:37:20;;;;;;;9.68;7.68;;;16.70;47.10;;;;;;5015701;28;20804;-77
2021/09/26 01:40:02;;;;;;;9.43;7.70;;;16.60;46.70;;;;;;5000716;28;20465;-77
2021/09/26 01:42:46;;;;;;;11.45;7.88;;;16.70;46.70;;;;;;4994150;28;20971;-77
2021/09/26 01:45:29;;;;;;;9.90;7.70;;;16.70;46.30;;;;;;4993614;28;20803;-77
2021/09/26 01:48:21;;;;;;;9.70;7.82;;;16.80;46.10;;;;;;5013778;28;20444;-77
2021/09/26 01:50:55;;;;;;;9.13;7.70;;;16.80;46.00;;;;;;4972671;28;20419;-77
2021/09/26 01:53:23;;;;;;;11.80;7.85;;;16.80;46.30;;;;;;4975447;28;20388;-77
2021/09/26 01:55:50;;;;;;;12.32;8.20;;;16.90;45.80;;;;;;4974587;28;20494;-76
2021/09/26 01:58:17;;;;;;;15.55;7.93;;;16.90;45.50;;;;;;4977943;28;20395;-77
2021/09/26 02:00:43;;;;;;;8.80;7.90;;;16.90;45.70;;;;;;4976208;28;20449;-75
2021/09/26 02:03:10;;;;;;;10.90;7.60;;;16.90;45.70;;;;;;4975240;28;20785;-77
2021/09/26 02:05:41;;;;;;;12.38;7.63;;;17.00;45.40;;;;;;4984653;28;20406;-77
2021/09/26 02:08:08;;;;;;;12.47;8.00;;;17.00;45.40;;;;;;4994622;28;20387;-77
2021/09/26 02:10:35;;;;;;;9.90;7.70;;;17.10;45.00;;;;;;4992216;28;20426;-77
2021/09/26 02:13:01;;;;;;;10.57;8.32;;;17.10;45.00;;;;;;4997263;28;20397;-75
2021/09/26 02:15:28;;;;;;;11.45;7.75;;;17.10;44.70;;;;;;5002751;28;20408;-74
2021/09/26 02:17:56;;;;;;;11.98;8.35;;;17.20;44.60;;;;;;5012526;28;20695;-76
2021/09/26 02:20:23;;;;;;;8.98;7.60;;;17.20;44.70;;;;;;5012346;28;20400;-75
2021/09/26 02:22:50;;;;;;;11.25;8.50;;;17.30;44.00;;;;;;5012520;28;20392;-76
2021/09/26 02:25:18;;;;;;;10.82;7.97;;;17.30;43.60;;;;;;5008964;28;20571;-76
2021/09/26 02:27:44;;;;;;;13.23;9.00;;;17.30;43.50;;;;;;4992567;28;20536;-76
2021/09/26 02:30:11;;;;;;;14.82;9.13;;;17.40;43.40;;;;;;4989771;28;20414;-76
2021/09/26 02:32:36;;;;;;;10.80;8.30;;;17.30;43.60;;;;;;4992431;28;20404;-76
2021/09/26 02:35:04;;;;;;;13.47;8.03;;;17.30;44.10;;;;;;4992316;28;20399;-77
2021/09/26 02:37:30;;;;;;;9.15;7.80;;;17.20;44.60;;;;;;4973060;28;20398;-77
2021/09/26 02:39:56;;;;;;;9.43;8.17;;;17.20;44.60;;;;;;4972949;28;20865;-77
2021/09/26 02:42:49;;;;;;;10.27;7.87;;;17.20;44.80;;;;;;4973532;28;20414;-75
2021/09/26 02:45:17;;;;;;;11.50;7.80;;;17.20;44.90;;;;;;4973291;28;20905;-76
2021/09/26 02:47:56;;;;;;;10.25;7.70;;;17.20;45.00;;;;;;4994566;28;20397;-76
2021/09/26 02:50:23;;;;;;;10.48;7.85;;;17.30;45.30;;;;;;4994216;28;20506;-76
2021/09/26 02:52:49;;;;;;;8.55;7.63;;;17.20;45.10;;;;;;4992615;28;20394;-76
2021/09/26 02:55:16;;;;;;;10.30;8.07;;;17.30;45.10;;;;;;4998469;28;20379;-77
2021/09/26 02:57:43;;;;;;;10.20;7.90;;;17.30;44.80;;;;;;4995525;28;20804;-76
2021/09/26 03:00:10;;;;;;;16.48;7.90;;;17.30;45.20;;;;;;4991635;28;20521;-76
2021/09/26 03:02:36;;;;;;;14.07;8.13;;;17.30;45.10;;;;;;4991905;28;20387;-76
2021/09/26 03:05:03;;;;;;;12.27;8.27;;;17.30;45.30;;;;;;4991974;28;20390;-76
2021/09/26 03:07:28;;;;;;;10.57;7.82;;;17.30;44.90;;;;;;5006961;28;20405;-76
2021/09/26 03:09:54;;;;;;;11.75;7.75;;;17.40;44.60;;;;;;5011129;28;20465;-77
2021/09/26 03:12:21;;;;;;;8.73;7.10;;;17.40;44.50;;;;;;5010904;28;20728;-75
2021/09/26 03:14:48;;;;;;;10.00;7.35;;;17.40;44.60;;;;;;5011915;28;20388;-76
2021/09/26 03:17:14;;;;;;;10.77;8.45;;;17.40;44.60;;;;;;5010872;28;20454;-75
2021/09/26 03:19:39;;;;;;;10.25;7.70;;;17.40;44.80;;;;;;5009734;28;20969;-75
2021/09/26 03:22:06;;;;;;;12.90;7.95;;;17.40;44.80;;;;;;5010017;28;20429;-73
2021/09/26 03:24:32;;;;;;;13.25;8.35;;;17.40;45.10;;;;;;5001561;28;20394;-76
2021/09/26 03:27:03;;;;;;;8.50;7.60;;;17.30;45.40;;;;;;4980865;28;20403;-75
2021/09/26 03:29:32;;;;;;;10.32;8.35;;;17.30;45.40;;;;;;5008001;28;20392;-75
2021/09/26 03:31:59;;;;;;;12.60;8.60;;;17.30;45.70;;;;;;4997101;28;20470;-76
2021/09/26 03:34:25;;;;;;;13.05;7.80;;;17.30;45.60;;;;;;4989422;28;21214;-77
2021/09/26 03:36:51;;;;;;;10.57;8.60;;;17.20;46.20;;;;;;4988794;28;20426;-77
2021/09/26 03:39:16;;;;;;;9.10;7.67;;;17.20;46.80;;;;;;4991147;28;20405;-76
2021/09/26 03:41:42;;;;;;;10.98;8.52;;;17.20;46.80;;;;;;4991421;28;20452;-75
2021/09/26 03:44:07;;;;;;;10.95;8.60;;;17.20;47.20;;;;;;4997619;28;20394;-75
2021/09/26 03:46:33;;;;;;;12.13;8.40;;;17.10;47.60;;;;;;5001139;28;20390;-74
2021/09/26 03:48:59;;;;;;;11.77;8.70;;;17.10;48.00;;;;;;5012912;28;20436;-75
2021/09/26 03:51:24;;;;;;;12.77;8.80;;;17.10;48.30;;;;;;5021323;28;20440;-75
2021/09/26 03:53:50;;;;;;;8.65;7.70;;;17.10;48.30;;;;;;5017292;28;20393;-74
2021/09/26 03:56:15;;;;;;;9.85;8.60;;;17.10;48.60;;;;;;5021182;28;20384;-75
2021/09/26 03:58:41;;;;;;;12.60;8.37;;;17.10;48.80;;;;;;5010519;28;20471;-76
2021/09/26 04:01:07;;;;;;;12.50;9.30;;;17.10;49.00;;;;;;5006180;28;20436;-76
2021/09/26 04:03:32;;;;;;;11.23;8.23;;;17.10;48.90;;;;;;5010854;28;20400;-75
2021/09/26 04:05:58;;;;;;;12.23;8.70;;;17.20;49.10;;;;;;5010994;28;20397;-76
2021/09/26 04:08:24;;;;;;;12.20;8.00;;;17.20;49.20;;;;;;5004157;28;20394;-75
2021/09/26 04:10:49;;;;;;;11.23;8.07;;;17.30;48.90;;;;;;4989914;28;20410;-75
2021/09/26 04:13:15;;;;;;;14.53;8.50;;;17.30;49.00;;;;;;4991081;28;20391;-75
2021/09/26 04:15:40;;;;;;;10.47;8.43;;;17.30;48.70;;;;;;5002167;28;20389;-75
2021/09/26 04:18:06;;;;;;;11.25;8.48;;;17.30;48.90;;;;;;5010170;28;20455;-76
2021/09/26 04:20:31;;;;;;;9.80;8.43;;;17.30;49.10;;;;;;5010926;28;20400;-77
2021/09/26 04:22:57;;;;;;;10.30;8.00;;;17.30;48.90;;;;;;5009481;28;20882;-76
2021/09/26 04:25:22;;;;;;;13.73;8.73;;;17.40;49.10;;;;;;5011653;28;20380;-76
2021/09/26 04:27:48;;;;;;;11.70;8.43;;;17.40;49.30;;;;;;5012584;28;20487;-76
2021/09/26 04:30:14;;;;;;;13.55;8.85;;;17.30;49.70;;;;;;5010522;28;20778;-77
2021/09/26 04:32:40;;;;;;;10.10;8.27;;;17.40;49.70;;;;;;5027242;28;20415;-77
2021/09/26 04:35:06;;;;;;;14.70;9.50;;;17.40;49.70;;;;;;5031858;28;20384;-77
2021/09/26 04:37:32;;;;;;;11.98;8.68;;;17.30;49.80;;;;;;5016813;28;20392;-77
2021/09/26 04:39:57;;;;;;;11.73;8.45;;;17.40;50.00;;;;;;4992527;28;20398;-76
2021/09/26 04:42:23;;;;;;;12.23;8.60;;;17.40;49.20;;;;;;4991010;28;20544;-75
2021/09/26 04:44:48;;;;;;;11.73;9.43;;;17.40;49.60;;;;;;4991196;28;20387;-77
2021/09/26 04:47:14;;;;;;;12.00;10.00;;;17.40;51.70;;;;;;5000275;28;20395;-76
2021/09/26 04:49:40;;;;;;;11.13;9.18;;;17.40;54.10;;;;;;5004547;28;20434;-75
2021/09/26 04:52:06;;;;;;;10.88;9.10;;;17.30;56.10;;;;;;5025641;28;20400;-77
2021/09/26 04:54:31;;;;;;;16.25;9.48;;;17.30;57.40;;;;;;5024906;28;20423;-77
2021/09/26 04:56:57;;;;;;;12.70;9.97;;;17.20;58.60;;;;;;5014158;28;20476;-77
2021/09/26 04:59:24;;;;;;;14.20;9.80;;;17.20;59.30;;;;;;4994948;28;20404;-77
2021/09/26 05:01:52;;;;;;;12.67;10.20;;;17.10;60.90;;;;;;4975107;28;20411;-77
2021/09/26 05:04:18;;;;;;;14.05;10.20;;;17.10;62.50;;;;;;5011144;28;20638;-77
2021/09/26 05:06:44;;;;;;;14.73;11.40;;;17.10;63.50;;;;;;5015176;28;20384;-77
2021/09/26 05:09:09;;;;;;;14.10;10.68;;;17.00;64.50;;;;;;5015585;28;20391;-78
2021/09/26 05:11:35;;;;;;;16.75;10.68;;;17.00;66.50;;;;;;5015854;28;20405;-77
2021/09/26 05:14:00;;;;;;;14.77;10.87;;;17.00;66.80;;;;;;5014547;28;20447;-78
2021/09/26 05:16:26;;;;;;;13.07;10.90;;;17.00;66.70;;;;;;5014204;28;20828;-78
2021/09/26 05:18:52;;;;;;;16.00;11.30;;;17.00;66.50;;;;;;5014514;28;20803;-77
2021/09/26 05:21:18;;;;;;;15.87;11.30;;;16.90;67.70;;;;;;5014212;28;20389;-76
2021/09/26 05:23:43;;;;;;;16.58;11.07;;;16.90;68.90;;;;;;5013364;28;20403;-76
2021/09/26 05:26:09;;;;;;;15.40;10.60;;;16.90;69.80;;;;;;5012842;28;20494;-78
2021/09/26 05:28:35;;;;;;;14.70;11.23;;;17.00;68.80;;;;;;5014131;28;20862;-78
2021/09/26 05:31:01;;;;;;;16.55;11.30;;;17.00;68.60;;;;;;5015156;28;20401;-76
2021/09/26 05:33:28;;;;;;;13.93;10.15;;;17.00;68.60;;;;;;5014614;28;20404;-77
2021/09/26 05:35:57;;;;;;;13.45;10.75;;;17.10;68.60;;;;;;5015315;28;20473;-76
2021/09/26 05:38:24;;;;;;;15.90;10.52;;;17.10;69.00;;;;;;5013939;28;20461;-76
2021/09/26 05:40:50;;;;;;;13.60;11.20;;;17.10;69.60;;;;;;5014245;28;20389;-78
2021/09/26 05:43:15;;;;;;;15.88;11.32;;;17.10;69.00;;;;;;5029358;28;20447;-76
2021/09/26 05:45:41;;;;;;;15.27;11.43;;;17.20;68.50;;;;;;5013634;28;20398;-75
2021/09/26 05:48:07;;;;;;;13.53;11.03;;;17.20;69.00;;;;;;5001987;28;20539;-76
2021/09/26 05:50:32;;;;;;;14.30;11.37;;;17.20;70.00;;;;;;5011537;28;20418;-76
2021/09/26 05:52:58;;;;;;;17.20;11.48;;;17.10;70.90;;;;;;5012861;28;20429;-77
2021/09/26 05:55:29;;;;;;;15.27;11.93;;;17.10;71.40;;;;;;5012794;28;20425;-77
2021/09/26 05:57:55;;;;;;;20.20;12.13;;;17.10;71.60;;;;;;5014565;28;20390;-78
2021/09/26 06:00:24;;;;;;;15.90;11.23;;;17.10;72.70;;;;;;5009306;28;20507;-78
2021/09/26 06:02:50;;;;;;;17.42;10.80;;;17.20;72.20;;;;;;4999116;28;20424;-78
2021/09/26 06:05:16;;;;;;;15.38;11.80;;;17.20;72.10;;;;;;5011712;28;20393;-76
2021/09/26 06:07:41;;;;;;;15.70;12.23;;;17.20;71.50;;;;;;5012537;28;20893;-77
2021/09/26 06:10:08;;;;;;;15.75;11.93;;;17.20;72.20;;;;;;5012305;28;20400;-77
2021/09/26 06:12:34;;;;;;;17.50;11.55;;;17.20;72.50;;;;;;5003803;28;20397;-77
2021/09/26 06:14:59;;;;;;;14.40;11.80;;;17.20;72.80;;;;;;4999337;28;20871;-77
2021/09/26 06:17:25;;;;;;;17.58;11.60;;;17.30;73.00;;;;;;5012638;28;20412;-77
2021/09/26 06:19:52;;;;;;;16.50;11.50;;;17.30;72.50;;;;;;5012741;28;20858;-78
2021/09/26 06:22:19;;;;;;;13.73;11.18;;;17.40;71.10;;;;;;5012603;28;20404;-77
2021/09/26 06:24:45;;;;;;;14.27;11.20;;;17.50;69.90;;;;;;5013415;28;20803;-77
2021/09/26 06:27:12;;;;;;;16.30;11.43;;;17.60;68.20;;;;;;5014518;28;20888;-78
2021/09/26 06:29:38;;;;;;;17.10;12.38;;;17.70;68.20;;;;;;5023066;28;20393;-78
2021/09/26 06:32:03;;;;;;;15.90;11.57;;;17.70;68.40;;;;;;5024078;28;20464;-79
2021/09/26 06:34:29;;;;;;;13.38;11.02;;;17.70;67.40;;;;;;5017853;28;20452;-77
2021/09/26 06:36:55;;;;;;;16.20;11.73;;;17.80;67.20;;;;;;5015818;28;20384;-77
2021/09/26 06:39:20;;;;;;;14.37;10.60;;;17.80;67.20;;;;;;5013308;28;20451;-78
2021/09/26 06:41:47;;;;;;;17.60;11.43;;;17.80;66.10;;;;;;5013207;28;20385;-79
2021/09/26 06:44:13;;;;;;;15.73;10.70;;;18.00;65.50;;;;;;5010633;28;20478;-77
2021/09/26 06:46:39;;;;;;;14.38;10.85;;;18.00;64.20;;;;;;5003744;28;20472;-76
2021/09/26 06:49:05;;;;;;;16.30;11.65;;;18.10;63.40;;;;;;5000458;28;20393;-77
2021/09/26 06:51:32;;;;;;;14.83;12.07;;;18.20;62.80;;;;;;5011823;28;20432;-76
2021/09/26 06:53:57;;;;;;;14.98;11.90;;;18.20;62.90;;;;;;5001517;28;20394;-76
2021/09/26 06:56:23;;;;;;;14.95;11.55;;;18.20;62.30;;;;;;4995249;28;20637;-78
2021/09/26 06:58:49;;;;;;;15.03;11.30;;;18.30;62.80;;;;;;4995692;28;20394;-78
2021/09/26 07:01:14;;;;;;;14.23;11.13;;;18.50;61.10;;;;;;4992495;28;20398;-76
2021/09/26 07:03:40;;;;;;;14.83;11.30;;;18.60;60.80;;;;;;4996666;28;20461;-78
2021/09/26 07:06:06;;;;;;;15.07;11.47;;;18.60;59.30;;;;;;5009536;28;20875;-78
2021/09/26 07:08:31;;;;;;;17.20;10.90;;;18.70;59.20;;;;;;5000213;28;20429;-75
2021/09/26 07:10:57;;;;;;;13.10;10.90;;;18.80;57.90;;;;;;4995975;28;20417;-76
2021/09/26 07:13:23;;;;;;;16.97;10.93;;;18.80;58.20;;;;;;4992542;28;20399;-75
2021/09/26 07:15:48;;;;;;;18.30;11.60;;;18.70;58.50;;;;;;5005486;28;20439;-76
2021/09/26 07:18:14;;;;;;;16.38;11.00;;;18.70;57.90;;;;;;4993685;28;20431;-75
2021/09/26 07:20:40;;;;;;;14.27;11.05;;;18.70;58.20;;;;;;4992482;28;20434;-76
2021/09/26 07:23:05;;;;;;;15.83;11.37;;;18.70;58.50;;;;;;4991999;28;20497;-76
2021/09/26 07:25:31;;;;;;;18.10;11.73;;;18.80;59.00;;;;;;4990863;28;20422;-76
2021/09/26 07:27:58;;;;;;;14.48;11.75;;;18.80;58.70;;;;;;4993170;28;20456;-75
2021/09/26 07:30:24;;;;;;;17.02;11.38;;;18.80;58.60;;;;;;4991996;28;20441;-75
2021/09/26 07:32:50;;;;;;;16.58;12.10;;;18.80;57.60;;;;;;4990414;28;20443;-76
2021/09/26 07:35:16;;;;;;;15.02;10.70;;;18.90;57.00;;;;;;4992375;28;20931;-75
2021/09/26 07:37:42;;;;;;;17.05;12.68;;;19.10;56.50;;;;;;4998398;28;20892;-76
2021/09/26 07:40:09;;;;;;;16.63;11.85;;;19.20;56.30;;;;;;4994656;28;20413;-76
2021/09/26 07:42:34;;;;;;;15.00;12.20;;;19.40;54.10;;;;;;4991321;28;20410;-76
2021/09/26 07:45:03;;;;;;;18.60;12.43;;;19.50;53.10;;;;;;4990057;28;20402;-76
2021/09/26 07:47:33;;;;;;;14.75;12.35;;;19.60;52.20;;;;;;4990798;28;20433;-78
2021/09/26 07:50:00;;;;;;;17.80;12.70;;;19.70;52.00;;;;;;4996412;28;20412;-78
2021/09/26 07:52:27;;;;;;;14.02;12.15;;;19.60;52.60;;;;;;4979260;28;20398;-77
2021/09/26 07:54:52;;;;;;;19.05;13.27;;;19.60;52.10;;;;;;4992064;28;20394;-77
2021/09/26 07:57:21;;;;;;;14.80;12.23;;;19.60;53.20;;;;;;5010452;28;20397;-77
2021/09/26 07:59:47;;;;;;;16.65;12.38;;;19.60;53.70;;;;;;5014951;28;20475;-77
2021/09/26 08:02:13;;;;;;;15.48;12.07;;;19.60;52.70;;;;;;4992184;28;20400;-77
2021/09/26 08:04:39;;;;;;;14.30;12.02;;;19.70;53.20;;;;;;4996482;28;20404;-77
2021/09/26 08:07:05;;;;;;;19.73;12.75;;;19.70;52.50;;;;;;5019097;28;20402;-77
2021/09/26 08:09:30;;;;;;;16.10;12.50;;;19.80;52.00;;;;;;5000263;28;20784;-77
2021/09/26 08:11:56;;;;;;;15.80;12.10;;;19.90;51.60;;;;;;5009554;28;20771;-77
2021/09/26 08:14:22;;;;;;;16.00;12.18;;;19.90;51.40;;;;;;5013454;28;20397;-78
2021/09/26 08:16:47;;;;;;;23.30;14.77;;;20.00;52.10;;;;;;4996261;28;20402;-78
2021/09/26 08:19:13;;;;;;;19.77;12.88;;;20.10;52.10;;;;;;4998543;28;20487;-76
2021/09/26 08:21:39;;;;;;;16.53;12.13;;;20.10;52.10;;;;;;4997527;28;20402;-76
2021/09/26 08:24:07;;;;;;;14.98;11.70;;;20.30;49.70;;;;;;4992333;28;20522;-76
2021/09/26 08:26:33;;;;;;;16.83;12.30;;;20.30;49.70;;;;;;4989239;28;20410;-78
2021/09/26 08:28:59;;;;;;;15.93;12.15;;;20.30;49.70;;;;;;4999776;28;20468;-76
2021/09/26 08:31:25;;;;;;;16.23;12.20;;;20.40;49.60;;;;;;4995914;28;20489;-77
2021/09/26 08:33:50;;;;;;;19.83;11.97;;;20.50;48.60;;;;;;4997586;28;20406;-78
2021/09/26 08:36:19;;;;;;;19.52;12.52;;;20.60;48.30;;;;;;4997792;28;20407;-78
2021/09/26 08:38:45;;;;;;;15.10;12.73;;;20.70;48.80;;;;;;4976696;28;21008;-78
2021/09/26 08:41:14;;;;;;;15.45;12.00;;;20.70;47.90;;;;;;4995110;28;20454;-77
2021/09/26 08:43:40;;;;;;;15.87;12.70;;;20.80;47.60;;;;;;4996083;28;20489;-76
2021/09/26 08:46:07;;;;;;;16.70;12.93;;;20.80;47.50;;;;;;4995801;28;20835;-76
2021/09/26 08:48:33;;;;;;;14.50;12.00;;;20.80;47.40;;;;;;4996748;28;20402;-77
2021/09/26 08:50:59;;;;;;;17.92;13.30;;;20.90;46.30;;;;;;5002258;28;20410;-77
2021/09/26 08:53:25;;;;;;;18.05;11.63;;;21.00;45.20;;;;;;5003307;28;20402;-77
2021/09/26 08:55:55;;;;;;;17.10;13.37;;;21.10;45.30;;;;;;4998431;28;20437;-77
2021/09/26 08:58:21;;;;;;;15.60;12.68;;;21.10;45.70;;;;;;5004503;28;20401;-76
2021/09/26 09:00:48;;;;;;;14.27;10.77;;;21.10;46.40;;;;;;5004362;28;20492;-76
2021/09/26 09:03:14;;;;;;;15.77;11.90;;;21.20;43.70;;;;;;5002968;28;20410;-76
2021/09/26 09:05:40;;;;;;;14.97;11.00;;;21.40;44.00;;;;;;5000696;28;20414;-76
2021/09/26 09:08:19;;;;;;;14.43;10.98;;;21.50;43.40;;;;;;5013762;28;20393;-76
2021/09/26 09:10:48;;;;;;;14.85;10.50;;;21.50;42.30;;;;;;5015665;28;20414;-76
2021/09/26 09:13:27;;;;;;;15.13;10.48;;;21.50;42.10;;;;;;5003188;28;20414;-76
2021/09/26 09:16:01;;;;;;;14.23;10.40;;;21.60;41.70;;;;;;5005976;28;20391;-77
2021/09/26 09:18:37;;;;;;;13.88;11.15;;;21.70;41.10;;;;;;5013717;28;20489;-76
2021/09/26 09:21:21;;;;;;;13.23;10.52;;;21.70;41.00;;;;;;4997990;28;20387;-74
2021/09/26 09:23:48;;;;;;;15.38;10.88;;;21.80;41.50;;;;;;4998334;28;20402;-76
2021/09/26 09:26:13;;;;;;;13.77;9.80;;;21.90;41.60;;;;;;4986990;28;20407;-76
2021/09/26 09:28:41;;;;;;;16.87;9.90;;;21.90;39.80;;;;;;5009236;28;20415;-77
2021/09/26 09:31:08;;;;;;;13.95;9.40;;;22.00;39.50;;;;;;5010015;28;20501;-76
2021/09/26 09:33:42;;;;;;;12.93;9.02;;;22.10;39.10;;;;;;4994392;28;20430;-76
2021/09/26 09:36:17;;;;;;;15.18;8.75;;;22.20;38.90;;;;;;4994288;28;20482;-75
2021/09/26 09:38:44;;;;;;;11.88;8.68;;;22.40;37.60;;;;;;4997171;28;20406;-76
2021/09/26 09:41:10;;;;;;;8.82;7.35;;;22.40;37.50;;;;;;5014144;28;20390;-76
2021/09/26 09:43:56;;;;;;;11.63;9.00;;;22.40;37.70;;;;;;5012667;28;20409;-75
2021/09/26 09:46:33;;;;;;;13.70;8.70;;;22.40;37.70;;;;;;5023452;28;20730;-74
2021/09/26 09:49:20;;;;;;;13.70;9.23;;;22.50;37.70;;;;;;5001893;28;20398;-76
2021/09/26 09:52:00;;;;;;;13.02;7.85;;;22.60;37.50;;;;;;5001625;28;21004;-76
2021/09/26 09:54:37;;;;;;;14.25;7.75;;;22.70;36.00;;;;;;5013124;28;20475;-76
2021/09/26 09:57:14;;;;;;;12.85;8.45;;;22.80;36.30;;;;;;5001891;28;20429;-77
2021/09/26 09:59:40;;;;;;;10.30;8.55;;;23.00;36.20;;;;;;4995843;28;20398;-78
2021/09/26 10:02:06;;;;;;;13.07;7.70;;;23.10;35.90;;;;;;4994464;28;20760;-77
2021/09/26 10:04:44;;;;;;;13.40;7.43;;;23.20;35.00;;;;;;4993871;28;20397;-76
2021/09/26 10:07:26;;;;;;;9.70;7.50;;;23.20;35.20;;;;;;4994729;28;20843;-76
2021/09/26 10:09:53;;;;;;;15.48;7.90;;;23.10;34.30;;;;;;4985275;28;20433;-77
2021/09/26 10:12:27;;;;;;;12.07;7.47;;;23.00;35.00;;;;;;4994980;28;20847;-76
2021/09/26 10:14:56;;;;;;;11.43;8.38;;;22.90;35.30;;;;;;4994540;28;20493;-79
2021/09/26 10:17:23;;;;;;;12.02;8.10;;;22.90;35.80;;;;;;5014315;28;20479;-77
2021/09/26 10:19:49;;;;;;;10.63;8.07;;;22.80;35.80;;;;;;5014802;28;20481;-78
2021/09/26 10:22:15;;;;;;;10.82;8.00;;;22.80;36.00;;;;;;5017077;28;20396;-78
2021/09/26 10:24:47;;;;;;;14.50;8.63;;;23.00;35.10;;;;;;5012546;28;20396;-78
2021/09/26 10:27:19;;;;;;;9.68;7.40;;;23.00;35.60;;;;;;5012065;28;20407;-78
2021/09/26 10:29:47;;;;;;;7.13;6.30;;;23.20;34.90;;;;;;5016814;28;20420;-78
2021/09/26 10:32:13;;;;;;;10.27;5.97;;;23.30;32.60;;;;;;5016795;28;20388;-76
2021/09/26 10:34:39;;;;;;;9.23;5.95;;;23.40;32.20;;;;;;5012436;28;20711;-76
2021/09/26 10:37:12;;;;;;;10.82;6.40;;;23.50;32.70;;;;;;4996269;28;20481;-76
2021/09/26 10:39:39;;;;;;;9.67;6.37;;;23.50;32.40;;;;;;4992638;28;20386;-76
2021/09/26 10:42:19;;;;;;;9.65;5.40;;;23.40;32.70;;;;;;4992578;28;20551;-76
2021/09/26 10:44:47;;;;;;;8.85;5.25;;;23.60;30.60;;;;;;4992091;28;20489;-77
2021/09/26 10:47:19;;;;;;;8.02;4.80;;;23.80;29.20;;;;;;4994805;28;20494;-77
2021/09/26 10:49:50;;;;;;;9.68;4.47;;;24.00;29.40;;;;;;4992376;28;20879;-76
2021/09/26 10:52:33;;;;;;;9.82;5.32;;;24.30;28.00;;;;;;4994058;28;20809;-75
2021/09/26 10:55:14;;;;;;;7.75;4.90;;;24.50;27.70;;;;;;4993533;28;20752;-77
2021/09/26 10:58:01;;;;;;;8.40;4.90;;;24.50;27.70;;;;;;4994490;28;20387;-77
2021/09/26 11:00:33;;;;;;;11.00;4.90;;;24.50;27.70;;;;;;4970924;28;20426;-75
2021/09/26 11:03:09;;;;;;;6.25;3.83;;;24.60;26.40;;;;;;4972853;28;20399;-76
2021/09/26 11:05:44;;;;;;;11.43;4.70;;;24.50;26.50;;;;;;5008414;28;20389;-76
2021/09/26 11:08:16;;;;;;;9.70;4.30;;;24.60;26.10;;;;;;5014648;28;20392;-76
2021/09/26 11:10:45;;;;;;;10.85;4.40;;;24.80;26.10;;;;;;5011827;28;20835;-76
2021/09/26 11:13:13;;;;;;;10.68;4.30;;;25.00;25.40;;;;;;5012982;28;20392;-76
2021/09/26 11:16:17;;;;;;;5.65;3.80;;;25.20;24.40;;;;;;4995379;28;20487;-78
2021/09/26 11:19:21;;;;;;;5.50;3.70;;;25.30;24.20;;;;;;4993562;28;20885;-78
2021/09/26 11:21:49;;;;;;;5.65;4.20;;;25.70;22.80;;;;;;4990963;28;21018;-77
2021/09/26 11:24:18;;;;;;;8.25;3.88;;;26.10;22.20;;;;;;5008751;28;20397;-77
2021/09/26 11:27:07;;;;;;;8.93;3.77;;;26.50;21.30;;;;;;4997827;28;20439;-78
2021/09/26 11:29:39;;;;;;;6.28;3.75;;;26.30;19.60;;;;;;5015020;28;20377;-77
2021/09/26 11:32:10;;;;;;;7.67;3.10;;;26.00;20.60;;;;;;5012945;28;20427;-78
2021/09/26 11:34:36;;;;;;;8.57;3.58;;;25.80;20.60;;;;;;5016339;28;20901;-78
2021/09/26 11:37:03;;;;;;;8.00;4.30;;;25.60;20.70;;;;;;5000823;28;20397;-77
2021/09/26 11:39:29;;;;;;;8.00;3.83;;;25.40;21.70;;;;;;4992573;28;20394;-77
2021/09/26 11:41:56;;;;;;;4.60;3.70;;;25.40;21.60;;;;;;4992538;28;20402;-77
2021/09/26 11:44:21;;;;;;;6.65;3.65;;;25.30;22.30;;;;;;4993730;28;20417;-76
2021/09/26 11:46:52;;;;;;;9.00;4.03;;;25.40;22.20;;;;;;5007751;28;20849;-75
2021/09/26 11:49:18;;;;;;;9.73;4.00;;;25.50;22.40;;;;;;5003022;28;20397;-76
2021/09/26 11:51:44;;;;;;;7.32;3.95;;;25.50;22.60;;;;;;5003291;28;20417;-77
2021/09/26 11:54:10;;;;;;;10.75;4.20;;;25.60;22.40;;;;;;5003512;28;20406;-76
2021/09/26 11:56:39;;;;;;;12.52;4.78;;;25.60;22.20;;;;;;5005306;28;20398;-76
2021/09/26 11:59:09;;;;;;;10.33;3.93;;;25.70;22.40;;;;;;5002508;28;20400;-78
2021/09/26 12:01:44;;;;;;;7.40;3.83;;;25.80;21.00;;;;;;5004264;28;20493;-76
2021/09/26 12:04:11;;;;;;;9.90;3.20;;;25.80;20.50;;;;;;5004297;28;20421;-77
2021/09/26 12:06:38;;;;;;;5.05;3.35;;;25.90;19.70;;;;;;5004758;28;20442;-77
2021/09/26 12:09:05;;;;;;;8.82;3.15;;;25.90;19.80;;;;;;5004965;28;20437;-76
2021/09/26 12:11:31;;;;;;;4.07;3.07;;;25.80;19.70;;;;;;5001174;28;20412;-76
2021/09/26 12:13:58;;;;;;;5.82;3.45;;;25.80;20.30;;;;;;4995768;28;20382;-77
2021/09/26 12:16:25;;;;;;;8.48;3.40;;;25.60;20.20;;;;;;5000145;28;20460;-77
2021/09/26 12:18:59;;;;;;;8.50;3.40;;;25.50;20.80;;;;;;5016309;28;20404;-77
2021/09/26 12:21:27;;;;;;;5.93;3.60;;;25.70;20.90;;;;;;5001315;28;20406;-78
2021/09/26 12:23:57;;;;;;;8.85;3.90;;;25.50;21.10;;;;;;4996743;28;20390;-79
2021/09/26 12:26:33;;;;;;;8.30;3.80;;;25.60;21.60;;;;;;4997772;28;20407;-77
2021/09/26 12:29:05;;;;;;;9.60;3.67;;;25.50;21.70;;;;;;4975997;28;20392;-77
2021/09/26 12:31:32;;;;;;;7.22;3.85;;;25.30;21.90;;;;;;4991731;28;20867;-77
2021/09/26 12:33:59;;;;;;;9.07;3.60;;;25.30;21.30;;;;;;5002049;28;20784;-77
2021/09/26 12:36:30;;;;;;;5.32;3.85;;;25.20;21.30;;;;;;4996443;28;20386;-76
2021/09/26 12:38:57;;;;;;;8.13;3.70;;;25.10;21.40;;;;;;4989383;28;20409;-76
2021/09/26 12:41:28;;;;;;;8.10;4.20;;;25.10;21.90;;;;;;5012379;28;20401;-76
2021/09/26 12:44:04;;;;;;;6.60;3.33;;;25.10;22.00;;;;;;5012756;28;20406;-76